sensor_id;sensor_type;location;lat;lon;timestamp;temperature;humidity
4411;DHT22;2218;51.408;7.208;2024-03-06T00:00:52;18.90;40.10
4411;DHT22;2218;51.408;7.208;2024-03-06T00:03:19;18.90;40.10
4411;DHT22;2218;51.408;7.208;2024-03-06T00:05:47;18.90;40.10
4411;DHT22;2218;51.408;7.208;2024-03-06T00:08:15;18.90;40.10
4411;DHT22;2218;51.408;7.208;2024-03-06T00:10:42;18.90;40.10
4411;DHT22;2218;51.408;7.208;2024-03-06T00:13:10;18.90;40.10
4411;DHT22;2218;51.408;7.208;2024-03-06T00:15:37;18.90;40.10
4411;DHT22;2218;51.408;7.208;2024-03-06T00:18:05;18.90;40.10
4411;DHT22;2218;51.408;7.208;2024-03-06T00:20:32;18.80;40.10
4411;DHT22;2218;51.408;7.208;2024-03-06T00:23:00;18.80;40.00
4411;DHT22;2218;51.408;7.208;2024-03-06T00:25:27;18.80;40.10
4411;DHT22;2218;51.408;7.208;2024-03-06T00:27:54;18.80;40.10
4411;DHT22;2218;51.408;7.208;2024-03-06T00:30:21;18.80;40.10
4411;DHT22;2218;51.408;7.208;2024-03-06T00:32:48;18.80;40.10
4411;DHT22;2218;51.408;7.208;2024-03-06T00:35:15;18.80;40.00
4411;DHT22;2218;51.408;7.208;2024-03-06T00:37:42;18.80;40.00
4411;DHT22;2218;51.408;7.208;2024-03-06T00:40:12;18.80;40.00
4411;DHT22;2218;51.408;7.208;2024-03-06T00:42:39;18.80;40.00
4411;DHT22;2218;51.408;7.208;2024-03-06T00:45:08;18.80;40.00
4411;DHT22;2218;51.408;7.208;2024-03-06T00:47:35;18.80;40.10
4411;DHT22;2218;51.408;7.208;2024-03-06T00:50:02;18.70;40.00
4411;DHT22;2218;51.408;7.208;2024-03-06T00:52:33;18.70;40.00
4411;DHT22;2218;51.408;7.208;2024-03-06T00:55:00;18.70;40.00
4411;DHT22;2218;51.408;7.208;2024-03-06T00:57:28;18.70;39.90
4411;DHT22;2218;51.408;7.208;2024-03-06T00:59:55;18.70;40.50
4411;DHT22;2218;51.408;7.208;2024-03-06T01:02:23;18.70;40.00
4411;DHT22;2218;51.408;7.208;2024-03-06T01:04:49;18.70;40.00
4411;DHT22;2218;51.408;7.208;2024-03-06T01:07:16;18.70;40.00
4411;DHT22;2218;51.408;7.208;2024-03-06T01:09:44;18.70;39.90
4411;DHT22;2218;51.408;7.208;2024-03-06T01:12:12;18.70;39.90
4411;DHT22;2218;51.408;7.208;2024-03-06T01:14:40;18.70;39.90
4411;DHT22;2218;51.408;7.208;2024-03-06T01:17:08;18.60;39.90
4411;DHT22;2218;51.408;7.208;2024-03-06T01:19:34;18.60;39.80
4411;DHT22;2218;51.408;7.208;2024-03-06T01:22:01;18.60;39.90
4411;DHT22;2218;51.408;7.208;2024-03-06T01:24:29;18.60;39.80
4411;DHT22;2218;51.408;7.208;2024-03-06T01:26:56;18.60;39.80
4411;DHT22;2218;51.408;7.208;2024-03-06T01:29:22;18.60;39.80
4411;DHT22;2218;51.408;7.208;2024-03-06T01:31:51;18.60;39.80
4411;DHT22;2218;51.408;7.208;2024-03-06T01:34:17;18.60;39.80
4411;DHT22;2218;51.408;7.208;2024-03-06T01:36:45;18.60;39.80
4411;DHT22;2218;51.408;7.208;2024-03-06T01:39:12;18.60;39.80
4411;DHT22;2218;51.408;7.208;2024-03-06T01:41:44;18.60;39.80
4411;DHT22;2218;51.408;7.208;2024-03-06T01:44:12;18.60;39.80
4411;DHT22;2218;51.408;7.208;2024-03-06T01:46:39;18.60;39.80
4411;DHT22;2218;51.408;7.208;2024-03-06T01:49:09;18.60;39.80
4411;DHT22;2218;51.408;7.208;2024-03-06T01:51:38;18.50;39.80
4411;DHT22;2218;51.408;7.208;2024-03-06T01:54:05;18.60;39.80
4411;DHT22;2218;51.408;7.208;2024-03-06T01:56:34;18.50;39.80
4411;DHT22;2218;51.408;7.208;2024-03-06T01:59:04;18.50;39.80
4411;DHT22;2218;51.408;7.208;2024-03-06T02:01:32;18.50;39.80
4411;DHT22;2218;51.408;7.208;2024-03-06T02:03:59;18.50;39.70
4411;DHT22;2218;51.408;7.208;2024-03-06T02:06:29;18.50;39.70
4411;DHT22;2218;51.408;7.208;2024-03-06T02:08:57;18.50;39.70
4411;DHT22;2218;51.408;7.208;2024-03-06T02:11:23;18.50;39.80
4411;DHT22;2218;51.408;7.208;2024-03-06T02:13:50;18.50;39.80
4411;DHT22;2218;51.408;7.208;2024-03-06T02:16:17;18.50;39.80
4411;DHT22;2218;51.408;7.208;2024-03-06T02:18:54;18.50;39.70
4411;DHT22;2218;51.408;7.208;2024-03-06T02:21:25;18.50;39.70
4411;DHT22;2218;51.408;7.208;2024-03-06T02:23:52;18.50;39.70
4411;DHT22;2218;51.408;7.208;2024-03-06T02:26:21;18.40;39.70
4411;DHT22;2218;51.408;7.208;2024-03-06T02:28:49;18.50;39.70
4411;DHT22;2218;51.408;7.208;2024-03-06T02:31:17;18.40;39.70
4411;DHT22;2218;51.408;7.208;2024-03-06T02:33:46;18.40;39.60
4411;DHT22;2218;51.408;7.208;2024-03-06T02:36:14;18.40;39.70
4411;DHT22;2218;51.408;7.208;2024-03-06T02:38:44;18.40;39.60
4411;DHT22;2218;51.408;7.208;2024-03-06T02:41:11;18.40;39.60
4411;DHT22;2218;51.408;7.208;2024-03-06T02:43:41;18.40;39.60
4411;DHT22;2218;51.408;7.208;2024-03-06T02:46:08;18.50;39.60
4411;DHT22;2218;51.408;7.208;2024-03-06T02:48:35;18.50;39.40
4411;DHT22;2218;51.408;7.208;2024-03-06T02:51:02;18.60;39.40
4411;DHT22;2218;51.408;7.208;2024-03-06T02:53:29;18.60;39.30
4411;DHT22;2218;51.408;7.208;2024-03-06T02:55:58;18.60;39.30
4411;DHT22;2218;51.408;7.208;2024-03-06T02:58:26;18.70;39.20
4411;DHT22;2218;51.408;7.208;2024-03-06T03:00:57;18.70;39.20
4411;DHT22;2218;51.408;7.208;2024-03-06T03:03:23;18.70;39.20
4411;DHT22;2218;51.408;7.208;2024-03-06T03:05:51;18.70;39.10
4411;DHT22;2218;51.408;7.208;2024-03-06T03:08:18;18.80;39.10
4411;DHT22;2218;51.408;7.208;2024-03-06T03:10:46;18.80;39.10
4411;DHT22;2218;51.408;7.208;2024-03-06T03:13:14;18.80;39.00
4411;DHT22;2218;51.408;7.208;2024-03-06T03:15:41;18.80;39.00
4411;DHT22;2218;51.408;7.208;2024-03-06T03:18:09;18.80;39.00
4411;DHT22;2218;51.408;7.208;2024-03-06T03:20:36;18.80;39.00
4411;DHT22;2218;51.408;7.208;2024-03-06T03:23:03;18.80;39.00
4411;DHT22;2218;51.408;7.208;2024-03-06T03:25:31;18.80;39.00
4411;DHT22;2218;51.408;7.208;2024-03-06T03:27:59;18.80;39.00
4411;DHT22;2218;51.408;7.208;2024-03-06T03:30:27;18.80;39.00
4411;DHT22;2218;51.408;7.208;2024-03-06T03:32:54;18.80;39.50
4411;DHT22;2218;51.408;7.208;2024-03-06T03:35:21;18.80;39.00
4411;DHT22;2218;51.408;7.208;2024-03-06T03:37:50;18.80;38.90
4411;DHT22;2218;51.408;7.208;2024-03-06T03:40:17;18.80;38.90
4411;DHT22;2218;51.408;7.208;2024-03-06T03:42:45;18.80;38.90
4411;DHT22;2218;51.408;7.208;2024-03-06T03:45:11;18.80;38.90
4411;DHT22;2218;51.408;7.208;2024-03-06T03:47:40;18.80;38.90
4411;DHT22;2218;51.408;7.208;2024-03-06T03:50:08;18.80;38.90
4411;DHT22;2218;51.408;7.208;2024-03-06T03:52:36;18.80;38.90
4411;DHT22;2218;51.408;7.208;2024-03-06T03:55:07;18.80;38.90
4411;DHT22;2218;51.408;7.208;2024-03-06T03:57:34;18.80;38.90
4411;DHT22;2218;51.408;7.208;2024-03-06T04:00:01;18.80;38.90
4411;DHT22;2218;51.408;7.208;2024-03-06T04:02:37;18.80;38.90
4411;DHT22;2218;51.408;7.208;2024-03-06T04:05:07;18.80;38.80
4411;DHT22;2218;51.408;7.208;2024-03-06T04:07:35;18.80;38.90
4411;DHT22;2218;51.408;7.208;2024-03-06T04:10:04;18.80;38.80
4411;DHT22;2218;51.408;7.208;2024-03-06T04:12:32;18.80;38.90
4411;DHT22;2218;51.408;7.208;2024-03-06T04:14:59;18.80;38.80
4411;DHT22;2218;51.408;7.208;2024-03-06T04:17:26;18.80;38.80
4411;DHT22;2218;51.408;7.208;2024-03-06T04:19:53;18.80;38.80
4411;DHT22;2218;51.408;7.208;2024-03-06T04:22:22;18.80;38.80
4411;DHT22;2218;51.408;7.208;2024-03-06T04:24:49;18.80;38.80
4411;DHT22;2218;51.408;7.208;2024-03-06T04:27:16;18.80;38.80
4411;DHT22;2218;51.408;7.208;2024-03-06T04:29:43;18.80;38.80
4411;DHT22;2218;51.408;7.208;2024-03-06T04:32:10;18.70;38.70
4411;DHT22;2218;51.408;7.208;2024-03-06T04:34:37;18.80;38.80
4411;DHT22;2218;51.408;7.208;2024-03-06T04:37:04;18.80;38.80
4411;DHT22;2218;51.408;7.208;2024-03-06T04:39:33;18.80;38.80
4411;DHT22;2218;51.408;7.208;2024-03-06T04:42:00;18.80;38.70
4411;DHT22;2218;51.408;7.208;2024-03-06T04:44:28;18.70;38.70
4411;DHT22;2218;51.408;7.208;2024-03-06T04:46:55;18.80;38.80
4411;DHT22;2218;51.408;7.208;2024-03-06T04:49:22;18.70;38.60
4411;DHT22;2218;51.408;7.208;2024-03-06T04:51:49;18.80;38.70
4411;DHT22;2218;51.408;7.208;2024-03-06T04:54:16;18.70;38.60
4411;DHT22;2218;51.408;7.208;2024-03-06T04:56:44;18.80;38.70
4411;DHT22;2218;51.408;7.208;2024-03-06T04:59:11;18.70;38.60
4411;DHT22;2218;51.408;7.208;2024-03-06T05:01:39;18.70;38.60
4411;DHT22;2218;51.408;7.208;2024-03-06T05:04:06;18.80;38.70
4411;DHT22;2218;51.408;7.208;2024-03-06T05:06:33;18.70;38.60
4411;DHT22;2218;51.408;7.208;2024-03-06T05:09:01;18.70;38.60
4411;DHT22;2218;51.408;7.208;2024-03-06T05:11:28;18.70;38.60
4411;DHT22;2218;51.408;7.208;2024-03-06T05:13:58;18.70;38.60
4411;DHT22;2218;51.408;7.208;2024-03-06T05:16:25;18.70;38.60
4411;DHT22;2218;51.408;7.208;2024-03-06T05:18:52;18.70;38.50
4411;DHT22;2218;51.408;7.208;2024-03-06T05:21:19;18.70;38.50
4411;DHT22;2218;51.408;7.208;2024-03-06T05:23:48;18.80;38.60
4411;DHT22;2218;51.408;7.208;2024-03-06T05:26:15;18.80;38.60
4411;DHT22;2218;51.408;7.208;2024-03-06T05:28:42;18.80;38.50
4411;DHT22;2218;51.408;7.208;2024-03-06T05:31:17;18.80;38.50
4411;DHT22;2218;51.408;7.208;2024-03-06T05:33:47;18.80;38.50
4411;DHT22;2218;51.408;7.208;2024-03-06T05:36:15;18.80;38.40
4411;DHT22;2218;51.408;7.208;2024-03-06T05:38:43;18.80;38.40
4411;DHT22;2218;51.408;7.208;2024-03-06T05:41:10;18.80;38.40
4411;DHT22;2218;51.408;7.208;2024-03-06T05:43:36;18.80;38.40
4411;DHT22;2218;51.408;7.208;2024-03-06T05:46:04;18.80;38.50
4411;DHT22;2218;51.408;7.208;2024-03-06T05:48:32;18.80;38.40
4411;DHT22;2218;51.408;7.208;2024-03-06T05:50:59;18.80;38.50
4411;DHT22;2218;51.408;7.208;2024-03-06T05:53:26;18.80;38.40
4411;DHT22;2218;51.408;7.208;2024-03-06T05:55:53;18.80;38.40
4411;DHT22;2218;51.408;7.208;2024-03-06T05:58:20;18.80;38.50
4411;DHT22;2218;51.408;7.208;2024-03-06T06:00:47;18.90;38.50
4411;DHT22;2218;51.408;7.208;2024-03-06T06:03:14;18.90;38.50
4411;DHT22;2218;51.408;7.208;2024-03-06T06:05:43;18.90;38.50
4411;DHT22;2218;51.408;7.208;2024-03-06T06:08:10;18.90;38.50
4411;DHT22;2218;51.408;7.208;2024-03-06T06:10:36;18.90;38.50
4411;DHT22;2218;51.408;7.208;2024-03-06T06:13:04;18.90;38.50
4411;DHT22;2218;51.408;7.208;2024-03-06T06:15:32;18.90;38.50
4411;DHT22;2218;51.408;7.208;2024-03-06T06:17:59;18.90;38.50
4411;DHT22;2218;51.408;7.208;2024-03-06T06:20:25;18.90;38.50
4411;DHT22;2218;51.408;7.208;2024-03-06T06:22:54;18.90;38.50
4411;DHT22;2218;51.408;7.208;2024-03-06T06:25:21;18.90;38.50
4411;DHT22;2218;51.408;7.208;2024-03-06T06:27:48;18.90;38.50
4411;DHT22;2218;51.408;7.208;2024-03-06T06:30:15;18.90;38.50
4411;DHT22;2218;51.408;7.208;2024-03-06T06:32:43;18.90;38.50
4411;DHT22;2218;51.408;7.208;2024-03-06T06:35:10;18.90;38.40
4411;DHT22;2218;51.408;7.208;2024-03-06T06:37:39;18.90;38.40
4411;DHT22;2218;51.408;7.208;2024-03-06T06:40:09;18.90;38.40
4411;DHT22;2218;51.408;7.208;2024-03-06T06:42:44;18.90;38.40
4411;DHT22;2218;51.408;7.208;2024-03-06T06:45:13;19.00;38.40
4411;DHT22;2218;51.408;7.208;2024-03-06T06:47:41;19.00;38.30
4411;DHT22;2218;51.408;7.208;2024-03-06T06:50:08;19.00;38.30
4411;DHT22;2218;51.408;7.208;2024-03-06T06:52:37;19.00;38.30
4411;DHT22;2218;51.408;7.208;2024-03-06T06:55:05;19.00;38.30
4411;DHT22;2218;51.408;7.208;2024-03-06T06:57:35;19.00;38.20
4411;DHT22;2218;51.408;7.208;2024-03-06T07:00:02;19.00;38.30
4411;DHT22;2218;51.408;7.208;2024-03-06T07:02:36;19.10;38.20
4411;DHT22;2218;51.408;7.208;2024-03-06T07:05:04;19.10;37.80
4411;DHT22;2218;51.408;7.208;2024-03-06T07:07:32;19.20;37.90
4411;DHT22;2218;51.408;7.208;2024-03-06T07:09:58;19.20;37.70
4411;DHT22;2218;51.408;7.208;2024-03-06T07:12:27;19.20;37.60
4411;DHT22;2218;51.408;7.208;2024-03-06T07:14:54;19.20;37.50
4411;DHT22;2218;51.408;7.208;2024-03-06T07:17:21;19.30;37.30
4411;DHT22;2218;51.408;7.208;2024-03-06T07:19:48;19.30;37.40
4411;DHT22;2218;51.408;7.208;2024-03-06T07:22:16;19.30;37.50
4411;DHT22;2218;51.408;7.208;2024-03-06T07:24:44;19.30;37.50
4411;DHT22;2218;51.408;7.208;2024-03-06T07:27:11;19.40;37.50
4411;DHT22;2218;51.408;7.208;2024-03-06T07:29:39;19.40;37.50
4411;DHT22;2218;51.408;7.208;2024-03-06T07:32:06;19.40;37.60
4411;DHT22;2218;51.408;7.208;2024-03-06T07:34:33;19.40;37.90
4411;DHT22;2218;51.408;7.208;2024-03-06T07:37:01;19.40;37.90
4411;DHT22;2218;51.408;7.208;2024-03-06T07:39:28;19.40;38.20
4411;DHT22;2218;51.408;7.208;2024-03-06T07:41:57;19.50;38.40
4411;DHT22;2218;51.408;7.208;2024-03-06T07:44:23;19.50;38.40
4411;DHT22;2218;51.408;7.208;2024-03-06T07:46:52;19.50;38.10
4411;DHT22;2218;51.408;7.208;2024-03-06T07:49:19;19.60;36.90
4411;DHT22;2218;51.408;7.208;2024-03-06T07:51:47;19.60;35.20
4411;DHT22;2218;51.408;7.208;2024-03-06T07:54:14;19.70;34.60
4411;DHT22;2218;51.408;7.208;2024-03-06T07:56:41;19.70;34.40
4411;DHT22;2218;51.408;7.208;2024-03-06T07:59:08;19.80;34.30
4411;DHT22;2218;51.408;7.208;2024-03-06T08:01:39;19.80;34.20
4411;DHT22;2218;51.408;7.208;2024-03-06T08:04:07;19.80;34.10
4411;DHT22;2218;51.408;7.208;2024-03-06T08:06:34;19.30;35.00
4411;DHT22;2218;51.408;7.208;2024-03-06T08:09:03;19.20;35.40
4411;DHT22;2218;51.408;7.208;2024-03-06T08:11:30;19.30;36.10
4411;DHT22;2218;51.408;7.208;2024-03-06T08:13:57;19.40;36.20
4411;DHT22;2218;51.408;7.208;2024-03-06T08:16:25;19.40;35.90
4411;DHT22;2218;51.408;7.208;2024-03-06T08:18:52;19.50;36.40
4411;DHT22;2218;51.408;7.208;2024-03-06T08:21:20;19.50;36.00
4411;DHT22;2218;51.408;7.208;2024-03-06T08:23:48;19.50;36.50
4411;DHT22;2218;51.408;7.208;2024-03-06T08:26:15;19.60;36.40
4411;DHT22;2218;51.408;7.208;2024-03-06T08:28:42;19.60;36.00
4411;DHT22;2218;51.408;7.208;2024-03-06T08:31:09;19.60;36.70
4411;DHT22;2218;51.408;7.208;2024-03-06T08:33:36;19.70;36.00
4411;DHT22;2218;51.408;7.208;2024-03-06T08:36:04;19.70;36.40
4411;DHT22;2218;51.408;7.208;2024-03-06T08:38:34;19.70;36.50
4411;DHT22;2218;51.408;7.208;2024-03-06T08:41:00;19.70;36.70
4411;DHT22;2218;51.408;7.208;2024-03-06T08:43:27;19.70;37.20
4411;DHT22;2218;51.408;7.208;2024-03-06T08:45:54;19.70;37.30
4411;DHT22;2218;51.408;7.208;2024-03-06T08:48:21;19.70;36.80
4411;DHT22;2218;51.408;7.208;2024-03-06T08:50:49;19.80;36.70
4411;DHT22;2218;51.408;7.208;2024-03-06T08:53:16;19.80;36.50
4411;DHT22;2218;51.408;7.208;2024-03-06T08:55:45;19.90;36.80
4411;DHT22;2218;51.408;7.208;2024-03-06T08:58:12;19.90;36.60
4411;DHT22;2218;51.408;7.208;2024-03-06T09:00:40;19.90;36.50
4411;DHT22;2218;51.408;7.208;2024-03-06T09:03:07;20.00;36.60
4411;DHT22;2218;51.408;7.208;2024-03-06T09:05:34;20.00;36.60
4411;DHT22;2218;51.408;7.208;2024-03-06T09:08:01;20.00;36.60
4411;DHT22;2218;51.408;7.208;2024-03-06T09:10:28;20.10;36.60
4411;DHT22;2218;51.408;7.208;2024-03-06T09:12:56;20.10;36.60
4411;DHT22;2218;51.408;7.208;2024-03-06T09:15:24;20.10;36.60
4411;DHT22;2218;51.408;7.208;2024-03-06T09:17:51;20.10;36.60
4411;DHT22;2218;51.408;7.208;2024-03-06T09:20:18;20.10;36.70
4411;DHT22;2218;51.408;7.208;2024-03-06T09:22:45;20.10;36.70
4411;DHT22;2218;51.408;7.208;2024-03-06T09:25:12;20.10;36.70
4411;DHT22;2218;51.408;7.208;2024-03-06T09:27:40;20.10;36.60
4411;DHT22;2218;51.408;7.208;2024-03-06T09:30:10;20.10;36.70
4411;DHT22;2218;51.408;7.208;2024-03-06T09:32:39;20.20;36.80
4411;DHT22;2218;51.408;7.208;2024-03-06T09:35:07;20.20;36.80
4411;DHT22;2218;51.408;7.208;2024-03-06T09:37:34;20.20;36.80
4411;DHT22;2218;51.408;7.208;2024-03-06T09:40:01;20.20;36.80
4411;DHT22;2218;51.408;7.208;2024-03-06T09:42:29;20.20;36.80
4411;DHT22;2218;51.408;7.208;2024-03-06T09:44:56;20.20;36.80
4411;DHT22;2218;51.408;7.208;2024-03-06T09:47:25;20.20;36.90
4411;DHT22;2218;51.408;7.208;2024-03-06T09:49:59;20.20;36.90
4411;DHT22;2218;51.408;7.208;2024-03-06T09:52:29;20.20;40.50
4411;DHT22;2218;51.408;7.208;2024-03-06T09:54:57;20.10;40.70
4411;DHT22;2218;51.408;7.208;2024-03-06T09:57:26;20.10;40.80
4411;DHT22;2218;51.408;7.208;2024-03-06T09:59:52;20.00;40.70
4411;DHT22;2218;51.408;7.208;2024-03-06T10:02:38;20.00;40.50
4411;DHT22;2218;51.408;7.208;2024-03-06T10:05:20;20.00;40.40
4411;DHT22;2218;51.408;7.208;2024-03-06T10:07:48;20.00;40.20
4411;DHT22;2218;51.408;7.208;2024-03-06T10:10:16;20.00;40.10
4411;DHT22;2218;51.408;7.208;2024-03-06T10:12:45;20.00;39.70
4411;DHT22;2218;51.408;7.208;2024-03-06T10:15:14;20.00;37.40
4411;DHT22;2218;51.408;7.208;2024-03-06T10:17:42;20.10;36.90
4411;DHT22;2218;51.408;7.208;2024-03-06T10:20:20;20.10;36.60
4411;DHT22;2218;51.408;7.208;2024-03-06T10:22:49;20.20;36.40
4411;DHT22;2218;51.408;7.208;2024-03-06T10:25:21;20.20;36.10
4411;DHT22;2218;51.408;7.208;2024-03-06T10:28:03;20.20;35.90
4411;DHT22;2218;51.408;7.208;2024-03-06T10:30:32;20.20;35.80
4411;DHT22;2218;51.408;7.208;2024-03-06T10:33:03;20.20;35.60
4411;DHT22;2218;51.408;7.208;2024-03-06T10:35:31;20.20;36.10
4411;DHT22;2218;51.408;7.208;2024-03-06T10:37:59;20.20;36.40
4411;DHT22;2218;51.408;7.208;2024-03-06T10:40:31;20.20;36.50
4411;DHT22;2218;51.408;7.208;2024-03-06T10:42:59;20.10;36.60
4411;DHT22;2218;51.408;7.208;2024-03-06T10:45:36;20.20;36.40
4411;DHT22;2218;51.408;7.208;2024-03-06T10:48:11;20.10;36.40
4411;DHT22;2218;51.408;7.208;2024-03-06T10:50:40;20.10;36.70
4411;DHT22;2218;51.408;7.208;2024-03-06T10:53:10;20.10;36.50
4411;DHT22;2218;51.408;7.208;2024-03-06T10:55:39;20.10;36.50
4411;DHT22;2218;51.408;7.208;2024-03-06T10:58:07;20.10;36.50
4411;DHT22;2218;51.408;7.208;2024-03-06T11:00:36;20.10;36.50
4411;DHT22;2218;51.408;7.208;2024-03-06T11:03:05;20.10;36.70
4411;DHT22;2218;51.408;7.208;2024-03-06T11:05:36;20.10;36.60
4411;DHT22;2218;51.408;7.208;2024-03-06T11:08:06;20.10;36.60
4411;DHT22;2218;51.408;7.208;2024-03-06T11:10:35;20.10;36.70
4411;DHT22;2218;51.408;7.208;2024-03-06T11:13:08;20.10;36.70
4411;DHT22;2218;51.408;7.208;2024-03-06T11:15:47;20.10;36.70
4411;DHT22;2218;51.408;7.208;2024-03-06T11:18:43;20.10;36.80
4411;DHT22;2218;51.408;7.208;2024-03-06T11:21:33;20.10;36.60
4411;DHT22;2218;51.408;7.208;2024-03-06T11:24:14;20.10;36.70
4411;DHT22;2218;51.408;7.208;2024-03-06T11:26:47;20.10;36.80
4411;DHT22;2218;51.408;7.208;2024-03-06T11:29:17;20.10;36.80
4411;DHT22;2218;51.408;7.208;2024-03-06T11:32:12;20.10;36.80
4411;DHT22;2218;51.408;7.208;2024-03-06T11:34:39;20.10;36.80
4411;DHT22;2218;51.408;7.208;2024-03-06T11:37:08;20.10;36.90
4411;DHT22;2218;51.408;7.208;2024-03-06T11:39:38;20.10;36.90
4411;DHT22;2218;51.408;7.208;2024-03-06T11:42:06;20.10;36.90
4411;DHT22;2218;51.408;7.208;2024-03-06T11:44:35;20.10;36.90
4411;DHT22;2218;51.408;7.208;2024-03-06T11:47:03;20.10;36.90
4411;DHT22;2218;51.408;7.208;2024-03-06T11:49:33;20.10;37.00
4411;DHT22;2218;51.408;7.208;2024-03-06T11:52:01;20.20;37.10
4411;DHT22;2218;51.408;7.208;2024-03-06T11:54:32;20.10;37.10
4411;DHT22;2218;51.408;7.208;2024-03-06T11:57:01;20.20;37.30
4411;DHT22;2218;51.408;7.208;2024-03-06T11:59:30;20.10;36.90
4411;DHT22;2218;51.408;7.208;2024-03-06T12:01:59;20.20;36.90
4411;DHT22;2218;51.408;7.208;2024-03-06T12:04:28;20.10;36.90
4411;DHT22;2218;51.408;7.208;2024-03-06T12:06:57;20.20;37.10
4411;DHT22;2218;51.408;7.208;2024-03-06T12:09:25;20.20;37.30
4411;DHT22;2218;51.408;7.208;2024-03-06T12:11:55;20.20;37.40
4411;DHT22;2218;51.408;7.208;2024-03-06T12:14:23;20.20;37.50
4411;DHT22;2218;51.408;7.208;2024-03-06T12:16:56;20.20;37.40
4411;DHT22;2218;51.408;7.208;2024-03-06T12:19:25;20.20;37.40
4411;DHT22;2218;51.408;7.208;2024-03-06T12:21:55;20.20;37.50
4411;DHT22;2218;51.408;7.208;2024-03-06T12:24:26;20.20;37.50
4411;DHT22;2218;51.408;7.208;2024-03-06T12:27:00;20.20;37.50
4411;DHT22;2218;51.408;7.208;2024-03-06T12:29:29;20.20;37.50
4411;DHT22;2218;51.408;7.208;2024-03-06T12:31:57;20.20;37.50
4411;DHT22;2218;51.408;7.208;2024-03-06T12:34:25;20.20;38.00
4411;DHT22;2218;51.408;7.208;2024-03-06T12:36:52;20.10;37.30
4411;DHT22;2218;51.408;7.208;2024-03-06T12:39:19;20.20;37.30
4411;DHT22;2218;51.408;7.208;2024-03-06T12:41:48;20.20;37.30
4411;DHT22;2218;51.408;7.208;2024-03-06T12:44:18;20.20;37.40
4411;DHT22;2218;51.408;7.208;2024-03-06T12:46:46;20.20;37.40
4411;DHT22;2218;51.408;7.208;2024-03-06T12:49:13;20.20;37.30
4411;DHT22;2218;51.408;7.208;2024-03-06T12:51:40;20.20;37.40
4411;DHT22;2218;51.408;7.208;2024-03-06T12:54:07;20.20;37.40
4411;DHT22;2218;51.408;7.208;2024-03-06T12:56:35;20.20;37.40
4411;DHT22;2218;51.408;7.208;2024-03-06T12:59:02;20.20;37.50
4411;DHT22;2218;51.408;7.208;2024-03-06T13:01:32;20.30;37.50
4411;DHT22;2218;51.408;7.208;2024-03-06T13:03:59;20.30;37.40
4411;DHT22;2218;51.408;7.208;2024-03-06T13:06:26;20.30;37.50
4411;DHT22;2218;51.408;7.208;2024-03-06T13:08:54;20.20;37.40
4411;DHT22;2218;51.408;7.208;2024-03-06T13:11:20;20.20;37.50
4411;DHT22;2218;51.408;7.208;2024-03-06T13:13:48;20.30;37.70
4411;DHT22;2218;51.408;7.208;2024-03-06T13:16:15;20.20;37.60
4411;DHT22;2218;51.408;7.208;2024-03-06T13:18:43;20.30;37.70
4411;DHT22;2218;51.408;7.208;2024-03-06T13:21:10;20.30;37.60
4411;DHT22;2218;51.408;7.208;2024-03-06T13:23:37;20.30;37.60
4411;DHT22;2218;51.408;7.208;2024-03-06T13:26:05;20.30;37.70
4411;DHT22;2218;51.408;7.208;2024-03-06T13:28:32;20.30;37.80
4411;DHT22;2218;51.408;7.208;2024-03-06T13:30:59;20.30;37.80
4411;DHT22;2218;51.408;7.208;2024-03-06T13:33:26;20.30;37.70
4411;DHT22;2218;51.408;7.208;2024-03-06T13:35:55;20.30;37.70
4411;DHT22;2218;51.408;7.208;2024-03-06T13:38:21;20.30;37.80
4411;DHT22;2218;51.408;7.208;2024-03-06T13:40:48;20.30;37.80
4411;DHT22;2218;51.408;7.208;2024-03-06T13:43:15;20.30;37.80
4411;DHT22;2218;51.408;7.208;2024-03-06T13:45:48;20.30;37.90
4411;DHT22;2218;51.408;7.208;2024-03-06T13:48:16;20.30;37.90
4411;DHT22;2218;51.408;7.208;2024-03-06T13:50:43;20.30;37.90
4411;DHT22;2218;51.408;7.208;2024-03-06T13:53:12;20.30;38.30
4411;DHT22;2218;51.408;7.208;2024-03-06T13:55:39;20.30;37.80
4411;DHT22;2218;51.408;7.208;2024-03-06T13:58:07;20.30;37.80
4411;DHT22;2218;51.408;7.208;2024-03-06T14:00:34;20.30;37.80
4411;DHT22;2218;51.408;7.208;2024-03-06T14:03:02;20.40;38.00
4411;DHT22;2218;51.408;7.208;2024-03-06T14:05:29;20.30;37.90
4411;DHT22;2218;51.408;7.208;2024-03-06T14:07:56;20.30;37.90
4411;DHT22;2218;51.408;7.208;2024-03-06T14:10:25;20.40;37.90
4411;DHT22;2218;51.408;7.208;2024-03-06T14:12:52;20.40;37.90
4411;DHT22;2218;51.408;7.208;2024-03-06T14:15:20;20.40;37.90
4411;DHT22;2218;51.408;7.208;2024-03-06T14:17:49;20.40;38.00
4411;DHT22;2218;51.408;7.208;2024-03-06T14:20:16;20.40;38.20
4411;DHT22;2218;51.408;7.208;2024-03-06T14:22:43;20.40;38.20
4411;DHT22;2218;51.408;7.208;2024-03-06T14:25:10;20.40;38.20
4411;DHT22;2218;51.408;7.208;2024-03-06T14:27:39;20.40;38.10
4411;DHT22;2218;51.408;7.208;2024-03-06T14:30:07;20.40;38.20
4411;DHT22;2218;51.408;7.208;2024-03-06T14:32:36;20.40;38.10
4411;DHT22;2218;51.408;7.208;2024-03-06T14:35:04;20.40;38.10
4411;DHT22;2218;51.408;7.208;2024-03-06T14:37:31;20.40;38.30
4411;DHT22;2218;51.408;7.208;2024-03-06T14:39:59;20.40;38.30
4411;DHT22;2218;51.408;7.208;2024-03-06T14:42:26;20.40;38.30
4411;DHT22;2218;51.408;7.208;2024-03-06T14:44:55;20.40;38.30
4411;DHT22;2218;51.408;7.208;2024-03-06T14:47:22;20.40;38.20
4411;DHT22;2218;51.408;7.208;2024-03-06T14:49:49;20.40;38.20
4411;DHT22;2218;51.408;7.208;2024-03-06T14:52:16;20.40;38.20
4411;DHT22;2218;51.408;7.208;2024-03-06T14:54:43;20.40;38.20
4411;DHT22;2218;51.408;7.208;2024-03-06T14:57:12;20.40;38.20
4411;DHT22;2218;51.408;7.208;2024-03-06T14:59:39;20.40;38.20
4411;DHT22;2218;51.408;7.208;2024-03-06T15:02:07;20.40;38.20
4411;DHT22;2218;51.408;7.208;2024-03-06T15:04:34;20.40;38.20
4411;DHT22;2218;51.408;7.208;2024-03-06T15:07:01;20.40;38.20
4411;DHT22;2218;51.408;7.208;2024-03-06T15:09:28;20.40;38.20
4411;DHT22;2218;51.408;7.208;2024-03-06T15:11:57;20.40;38.20
4411;DHT22;2218;51.408;7.208;2024-03-06T15:14:25;20.40;38.30
4411;DHT22;2218;51.408;7.208;2024-03-06T15:16:53;20.40;38.20
4411;DHT22;2218;51.408;7.208;2024-03-06T15:19:21;20.40;38.20
4411;DHT22;2218;51.408;7.208;2024-03-06T15:21:48;20.30;38.10
4411;DHT22;2218;51.408;7.208;2024-03-06T15:24:15;20.30;38.10
4411;DHT22;2218;51.408;7.208;2024-03-06T15:26:42;20.40;38.20
4411;DHT22;2218;51.408;7.208;2024-03-06T15:29:09;20.40;38.20
4411;DHT22;2218;51.408;7.208;2024-03-06T15:31:37;20.30;38.10
4411;DHT22;2218;51.408;7.208;2024-03-06T15:34:05;20.30;38.10
4411;DHT22;2218;51.408;7.208;2024-03-06T15:36:34;20.40;38.20
4411;DHT22;2218;51.408;7.208;2024-03-06T15:39:02;20.40;38.10
4411;DHT22;2218;51.408;7.208;2024-03-06T15:41:32;20.40;38.50
4411;DHT22;2218;51.408;7.208;2024-03-06T15:43:59;20.40;37.90
4411;DHT22;2218;51.408;7.208;2024-03-06T15:46:26;20.40;38.10
4411;DHT22;2218;51.408;7.208;2024-03-06T15:48:52;20.40;38.10
4411;DHT22;2218;51.408;7.208;2024-03-06T15:51:19;20.40;37.90
4411;DHT22;2218;51.408;7.208;2024-03-06T15:53:49;20.40;37.70
4411;DHT22;2218;51.408;7.208;2024-03-06T15:56:18;20.40;37.90
4411;DHT22;2218;51.408;7.208;2024-03-06T15:58:45;20.40;37.90
4411;DHT22;2218;51.408;7.208;2024-03-06T16:01:11;20.30;37.70
4411;DHT22;2218;51.408;7.208;2024-03-06T16:03:38;20.40;37.70
4411;DHT22;2218;51.408;7.208;2024-03-06T16:06:05;20.40;37.50
4411;DHT22;2218;51.408;7.208;2024-03-06T16:08:33;20.40;37.30